sensor_id;sensor_type;location;lat;lon;timestamp;P1;durP1;ratioP1;P2;durP2;ratioP2
12306;SDS011;6216;51.146;7.008;2024-03-25T00:02:54;12.97;;;2.53;;
12306;SDS011;6216;51.146;7.008;2024-03-25T00:08:15;11.33;;;3.40;;
12306;SDS011;6216;51.146;7.008;2024-03-25T00:13:38;10.47;;;3.27;;
12306;SDS011;6216;51.146;7.008;2024-03-25T00:19:00;9.83;;;2.20;;
12306;SDS011;6216;51.146;7.008;2024-03-25T00:24:21;12.80;;;2.93;;
12306;SDS011;6216;51.146;7.008;2024-03-25T00:29:44;8.50;;;2.90;;
12306;SDS011;6216;51.146;7.008;2024-03-25T00:35:06;10.73;;;2.57;;
12306;SDS011;6216;51.146;7.008;2024-03-25T00:40:28;11.03;;;2.90;;
12306;SDS011;6216;51.146;7.008;2024-03-25T00:45:52;11.73;;;3.03;;
12306;SDS011;6216;51.146;7.008;2024-03-25T00:51:14;13.87;;;2.90;;
12306;SDS011;6216;51.146;7.008;2024-03-25T00:56:36;12.47;;;3.00;;
12306;SDS011;6216;51.146;7.008;2024-03-25T01:01:59;9.60;;;2.57;;
12306;SDS011;6216;51.146;7.008;2024-03-25T01:07:20;13.17;;;3.60;;
12306;SDS011;6216;51.146;7.008;2024-03-25T01:12:42;12.40;;;3.57;;
12306;SDS011;6216;51.146;7.008;2024-03-25T01:18:05;11.43;;;3.57;;
12306;SDS011;6216;51.146;7.008;2024-03-25T01:23:27;11.60;;;3.13;;
12306;SDS011;6216;51.146;7.008;2024-03-25T01:28:49;10.83;;;3.07;;
12306;SDS011;6216;51.146;7.008;2024-03-25T01:34:12;11.10;;;3.60;;
12306;SDS011;6216;51.146;7.008;2024-03-25T01:39:33;13.53;;;3.40;;
12306;SDS011;6216;51.146;7.008;2024-03-25T01:44:55;11.80;;;3.20;;
12306;SDS011;6216;51.146;7.008;2024-03-25T01:50:18;11.00;;;3.00;;
12306;SDS011;6216;51.146;7.008;2024-03-25T01:55:40;9.47;;;3.40;;
12306;SDS011;6216;51.146;7.008;2024-03-25T02:01:02;9.10;;;3.17;;
12306;SDS011;6216;51.146;7.008;2024-03-25T02:06:25;10.30;;;3.07;;
12306;SDS011;6216;51.146;7.008;2024-03-25T02:11:48;12.30;;;3.20;;
12306;SDS011;6216;51.146;7.008;2024-03-25T02:17:09;11.50;;;3.37;;
12306;SDS011;6216;51.146;7.008;2024-03-25T02:22:33;12.57;;;3.07;;
12306;SDS011;6216;51.146;7.008;2024-03-25T02:27:55;11.13;;;2.60;;
12306;SDS011;6216;51.146;7.008;2024-03-25T02:33:17;15.27;;;3.00;;
12306;SDS011;6216;51.146;7.008;2024-03-25T02:38:39;12.27;;;3.07;;
12306;SDS011;6216;51.146;7.008;2024-03-25T02:44:02;10.63;;;2.90;;
12306;SDS011;6216;51.146;7.008;2024-03-25T02:49:23;15.37;;;4.00;;
12306;SDS011;6216;51.146;7.008;2024-03-25T02:54:46;8.90;;;3.10;;
12306;SDS011;6216;51.146;7.008;2024-03-25T03:00:09;13.80;;;3.20;;
12306;SDS011;6216;51.146;7.008;2024-03-25T03:05:31;14.83;;;3.63;;
12306;SDS011;6216;51.146;7.008;2024-03-25T03:10:53;15.97;;;3.93;;
12306;SDS011;6216;51.146;7.008;2024-03-25T03:16:16;11.93;;;3.23;;
12306;SDS011;6216;51.146;7.008;2024-03-25T03:21:37;16.87;;;4.07;;
12306;SDS011;6216;51.146;7.008;2024-03-25T03:26:59;15.67;;;4.00;;
12306;SDS011;6216;51.146;7.008;2024-03-25T03:32:22;11.70;;;2.90;;
12306;SDS011;6216;51.146;7.008;2024-03-25T03:37:44;15.30;;;4.07;;
12306;SDS011;6216;51.146;7.008;2024-03-25T03:43:05;9.70;;;3.33;;
12306;SDS011;6216;51.146;7.008;2024-03-25T03:48:28;11.93;;;3.40;;
12306;SDS011;6216;51.146;7.008;2024-03-25T03:53:50;12.90;;;2.83;;
12306;SDS011;6216;51.146;7.008;2024-03-25T03:59:11;11.13;;;3.00;;
12306;SDS011;6216;51.146;7.008;2024-03-25T04:04:34;10.40;;;3.33;;
12306;SDS011;6216;51.146;7.008;2024-03-25T04:09:57;16.27;;;3.07;;
12306;SDS011;6216;51.146;7.008;2024-03-25T04:15:19;15.90;;;3.07;;
12306;SDS011;6216;51.146;7.008;2024-03-25T04:20:43;11.40;;;3.33;;
12306;SDS011;6216;51.146;7.008;2024-03-25T04:26:07;12.23;;;3.27;;
12306;SDS011;6216;51.146;7.008;2024-03-25T04:31:29;14.23;;;3.70;;
12306;SDS011;6216;51.146;7.008;2024-03-25T04:36:52;12.73;;;3.73;;
12306;SDS011;6216;51.146;7.008;2024-03-25T04:42:14;12.27;;;2.97;;
12306;SDS011;6216;51.146;7.008;2024-03-25T04:47:34;9.80;;;2.80;;
12306;SDS011;6216;51.146;7.008;2024-03-25T04:52:56;19.83;;;4.47;;
12306;SDS011;6216;51.146;7.008;2024-03-25T04:58:17;13.77;;;3.37;;
12306;SDS011;6216;51.146;7.008;2024-03-25T05:03:38;15.60;;;3.70;;
12306;SDS011;6216;51.146;7.008;2024-03-25T05:09:00;12.80;;;3.87;;
12306;SDS011;6216;51.146;7.008;2024-03-25T05:14:20;12.40;;;3.20;;
12306;SDS011;6216;51.146;7.008;2024-03-25T05:19:41;24.57;;;4.13;;
12306;SDS011;6216;51.146;7.008;2024-03-25T05:25:03;19.27;;;3.83;;
12306;SDS011;6216;51.146;7.008;2024-03-25T05:30:24;12.43;;;3.70;;
12306;SDS011;6216;51.146;7.008;2024-03-25T05:35:45;13.40;;;3.70;;
12306;SDS011;6216;51.146;7.008;2024-03-25T05:41:07;9.90;;;3.40;;
12306;SDS011;6216;51.146;7.008;2024-03-25T05:46:27;8.17;;;3.03;;
12306;SDS011;6216;51.146;7.008;2024-03-25T05:51:48;13.17;;;3.57;;
12306;SDS011;6216;51.146;7.008;2024-03-25T05:57:10;10.47;;;3.73;;
12306;SDS011;6216;51.146;7.008;2024-03-25T06:02:31;12.90;;;4.27;;
12306;SDS011;6216;51.146;7.008;2024-03-25T06:07:51;16.63;;;4.77;;
12306;SDS011;6216;51.146;7.008;2024-03-25T06:13:13;12.43;;;3.70;;
12306;SDS011;6216;51.146;7.008;2024-03-25T06:18:34;15.67;;;3.97;;
12306;SDS011;6216;51.146;7.008;2024-03-25T06:23:54;18.13;;;4.43;;
12306;SDS011;6216;51.146;7.008;2024-03-25T06:29:16;10.67;;;4.20;;
12306;SDS011;6216;51.146;7.008;2024-03-25T06:34:37;16.03;;;4.50;;
12306;SDS011;6216;51.146;7.008;2024-03-25T06:39:58;10.77;;;4.20;;
12306;SDS011;6216;51.146;7.008;2024-03-25T06:45:20;19.13;;;4.67;;
12306;SDS011;6216;51.146;7.008;2024-03-25T06:50:41;11.90;;;3.60;;
12306;SDS011;6216;51.146;7.008;2024-03-25T06:56:02;15.27;;;3.60;;
12306;SDS011;6216;51.146;7.008;2024-03-25T07:01:24;15.00;;;3.87;;
12306;SDS011;6216;51.146;7.008;2024-03-25T07:06:45;13.73;;;4.27;;
12306;SDS011;6216;51.146;7.008;2024-03-25T07:12:05;11.43;;;4.40;;
12306;SDS011;6216;51.146;7.008;2024-03-25T07:17:27;15.30;;;4.00;;
12306;SDS011;6216;51.146;7.008;2024-03-25T07:22:48;10.23;;;3.50;;
12306;SDS011;6216;51.146;7.008;2024-03-25T07:28:09;13.73;;;4.33;;
12306;SDS011;6216;51.146;7.008;2024-03-25T07:33:31;9.33;;;3.43;;
12306;SDS011;6216;51.146;7.008;2024-03-25T07:38:51;8.37;;;3.27;;
12306;SDS011;6216;51.146;7.008;2024-03-25T07:44:12;11.90;;;3.87;;
12306;SDS011;6216;51.146;7.008;2024-03-25T07:49:34;12.50;;;4.20;;
12306;SDS011;6216;51.146;7.008;2024-03-25T07:54:55;12.53;;;4.00;;
12306;SDS011;6216;51.146;7.008;2024-03-25T08:00:16;15.93;;;3.97;;
12306;SDS011;6216;51.146;7.008;2024-03-25T08:05:38;15.03;;;4.23;;
12306;SDS011;6216;51.146;7.008;2024-03-25T08:10:58;13.90;;;3.77;;
12306;SDS011;6216;51.146;7.008;2024-03-25T08:16:19;11.93;;;4.10;;
12306;SDS011;6216;51.146;7.008;2024-03-25T08:21:41;10.20;;;4.10;;
12306;SDS011;6216;51.146;7.008;2024-03-25T08:27:02;9.20;;;3.90;;
12306;SDS011;6216;51.146;7.008;2024-03-25T08:32:23;11.90;;;3.63;;
12306;SDS011;6216;51.146;7.008;2024-03-25T08:37:45;9.10;;;3.70;;
12306;SDS011;6216;51.146;7.008;2024-03-25T08:43:05;9.27;;;3.27;;
12306;SDS011;6216;51.146;7.008;2024-03-25T08:48:26;12.03;;;3.17;;
12306;SDS011;6216;51.146;7.008;2024-03-25T08:53:48;12.50;;;3.10;;
12306;SDS011;6216;51.146;7.008;2024-03-25T08:59:09;12.00;;;3.23;;
12306;SDS011;6216;51.146;7.008;2024-03-25T09:04:30;8.93;;;2.83;;
12306;SDS011;6216;51.146;7.008;2024-03-25T09:09:52;11.73;;;4.63;;
12306;SDS011;6216;51.146;7.008;2024-03-25T09:15:31;6.83;;;2.47;;
12306;SDS011;6216;51.146;7.008;2024-03-25T09:20:52;7.80;;;2.17;;
12306;SDS011;6216;51.146;7.008;2024-03-25T09:26:14;11.70;;;2.33;;
12306;SDS011;6216;51.146;7.008;2024-03-25T09:31:35;6.87;;;2.00;;
12306;SDS011;6216;51.146;7.008;2024-03-25T09:36:55;7.83;;;2.07;;
12306;SDS011;6216;51.146;7.008;2024-03-25T09:42:19;11.03;;;2.47;;
12306;SDS011;6216;51.146;7.008;2024-03-25T09:47:45;11.73;;;2.30;;
12306;SDS011;6216;51.146;7.008;2024-03-25T09:53:06;9.67;;;3.53;;
12306;SDS011;6216;51.146;7.008;2024-03-25T09:58:28;9.13;;;2.87;;
12306;SDS011;6216;51.146;7.008;2024-03-25T10:03:49;7.73;;;2.77;;
12306;SDS011;6216;51.146;7.008;2024-03-25T10:09:10;8.87;;;2.40;;
12306;SDS011;6216;51.146;7.008;2024-03-25T10:14:31;5.87;;;2.40;;
12306;SDS011;6216;51.146;7.008;2024-03-25T10:19:53;9.93;;;1.83;;
12306;SDS011;6216;51.146;7.008;2024-03-25T10:25:23;7.37;;;1.73;;
12306;SDS011;6216;51.146;7.008;2024-03-25T10:30:47;5.40;;;1.60;;
12306;SDS011;6216;51.146;7.008;2024-03-25T10:36:07;5.77;;;1.60;;
12306;SDS011;6216;51.146;7.008;2024-03-25T10:41:29;7.43;;;1.80;;
12306;SDS011;6216;51.146;7.008;2024-03-25T10:46:53;8.07;;;2.00;;
12306;SDS011;6216;51.146;7.008;2024-03-25T10:52:16;7.30;;;1.83;;
12306;SDS011;6216;51.146;7.008;2024-03-25T10:57:37;7.20;;;2.20;;
12306;SDS011;6216;51.146;7.008;2024-03-25T11:03:00;2.77;;;1.40;;
12306;SDS011;6216;51.146;7.008;2024-03-25T11:08:29;8.23;;;1.97;;
12306;SDS011;6216;51.146;7.008;2024-03-25T11:13:50;4.87;;;1.63;;
12306;SDS011;6216;51.146;7.008;2024-03-25T11:19:12;7.17;;;2.27;;
12306;SDS011;6216;51.146;7.008;2024-03-25T11:24:32;7.30;;;1.97;;
12306;SDS011;6216;51.146;7.008;2024-03-25T11:29:54;4.27;;;1.40;;
12306;SDS011;6216;51.146;7.008;2024-03-25T11:35:16;6.73;;;2.10;;
12306;SDS011;6216;51.146;7.008;2024-03-25T11:40:37;6.00;;;1.90;;
12306;SDS011;6216;51.146;7.008;2024-03-25T11:45:58;6.10;;;1.97;;
12306;SDS011;6216;51.146;7.008;2024-03-25T11:51:20;5.47;;;1.80;;
12306;SDS011;6216;51.146;7.008;2024-03-25T11:56:41;7.00;;;2.00;;
12306;SDS011;6216;51.146;7.008;2024-03-25T12:02:05;4.63;;;1.77;;
12306;SDS011;6216;51.146;7.008;2024-03-25T12:07:27;7.00;;;2.37;;
12306;SDS011;6216;51.146;7.008;2024-03-25T12:12:48;6.33;;;1.97;;
12306;SDS011;6216;51.146;7.008;2024-03-25T12:18:09;7.10;;;2.00;;
12306;SDS011;6216;51.146;7.008;2024-03-25T12:23:31;7.87;;;2.00;;
12306;SDS011;6216;51.146;7.008;2024-03-25T12:28:52;6.70;;;1.77;;
12306;SDS011;6216;51.146;7.008;2024-03-25T12:34:13;5.77;;;1.67;;
12306;SDS011;6216;51.146;7.008;2024-03-25T12:39:35;3.20;;;1.40;;
12306;SDS011;6216;51.146;7.008;2024-03-25T12:44:56;6.70;;;1.60;;
12306;SDS011;6216;51.146;7.008;2024-03-25T12:50:17;2.37;;;1.60;;
12306;SDS011;6216;51.146;7.008;2024-03-25T12:55:39;5.60;;;2.10;;
12306;SDS011;6216;51.146;7.008;2024-03-25T13:01:00;4.77;;;1.50;;
12306;SDS011;6216;51.146;7.008;2024-03-25T13:06:20;4.77;;;1.40;;
12306;SDS011;6216;51.146;7.008;2024-03-25T13:11:42;7.23;;;1.63;;
12306;SDS011;6216;51.146;7.008;2024-03-25T13:17:03;3.60;;;1.40;;
12306;SDS011;6216;51.146;7.008;2024-03-25T13:22:24;5.50;;;1.53;;
12306;SDS011;6216;51.146;7.008;2024-03-25T13:27:46;3.97;;;1.50;;
12306;SDS011;6216;51.146;7.008;2024-03-25T13:33:07;4.10;;;1.57;;
12306;SDS011;6216;51.146;7.008;2024-03-25T13:38:27;5.20;;;1.60;;
12306;SDS011;6216;51.146;7.008;2024-03-25T13:43:49;5.90;;;1.50;;
12306;SDS011;6216;51.146;7.008;2024-03-25T13:49:10;5.90;;;1.60;;
12306;SDS011;6216;51.146;7.008;2024-03-25T13:54:31;5.80;;;2.17;;
12306;SDS011;6216;51.146;7.008;2024-03-25T13:59:53;2.97;;;1.40;;
12306;SDS011;6216;51.146;7.008;2024-03-25T14:05:14;3.47;;;1.30;;
12306;SDS011;6216;51.146;7.008;2024-03-25T14:10:34;2.77;;;1.20;;
12306;SDS011;6216;51.146;7.008;2024-03-25T14:15:56;4.47;;;1.40;;
12306;SDS011;6216;51.146;7.008;2024-03-25T14:21:17;2.97;;;1.00;;
12306;SDS011;6216;51.146;7.008;2024-03-25T14:26:38;5.67;;;1.00;;
12306;SDS011;6216;51.146;7.008;2024-03-25T14:32:00;3.63;;;1.17;;
12306;SDS011;6216;51.146;7.008;2024-03-25T14:37:20;2.47;;;0.93;;
12306;SDS011;6216;51.146;7.008;2024-03-25T14:42:41;2.37;;;0.80;;
12306;SDS011;6216;51.146;7.008;2024-03-25T14:48:03;3.00;;;1.20;;
12306;SDS011;6216;51.146;7.008;2024-03-25T14:53:24;1.40;;;0.90;;
12306;SDS011;6216;51.146;7.008;2024-03-25T14:58:45;3.40;;;1.00;;
12306;SDS011;6216;51.146;7.008;2024-03-25T15:04:07;1.80;;;0.97;;
12306;SDS011;6216;51.146;7.008;2024-03-25T15:09:28;2.70;;;0.57;;
12306;SDS011;6216;51.146;7.008;2024-03-25T15:14:48;2.40;;;1.07;;
12306;SDS011;6216;51.146;7.008;2024-03-25T15:20:11;5.90;;;1.33;;
12306;SDS011;6216;51.146;7.008;2024-03-25T15:25:31;3.23;;;1.10;;
12306;SDS011;6216;51.146;7.008;2024-03-25T15:30:52;2.77;;;1.27;;
12306;SDS011;6216;51.146;7.008;2024-03-25T15:36:14;3.93;;;0.90;;
12306;SDS011;6216;51.146;7.008;2024-03-25T15:41:35;2.30;;;1.00;;
12306;SDS011;6216;51.146;7.008;2024-03-25T15:46:55;5.67;;;0.83;;
12306;SDS011;6216;51.146;7.008;2024-03-25T15:52:18;4.23;;;0.90;;
12306;SDS011;6216;51.146;7.008;2024-03-25T15:57:38;1.87;;;0.73;;
12306;SDS011;6216;51.146;7.008;2024-03-25T16:02:59;2.10;;;1.07;;
12306;SDS011;6216;51.146;7.008;2024-03-25T16:08:22;3.50;;;1.10;;
12306;SDS011;6216;51.146;7.008;2024-03-25T16:13:43;3.33;;;0.80;;
12306;SDS011;6216;51.146;7.008;2024-03-25T16:19:03;1.20;;;0.73;;
12306;SDS011;6216;51.146;7.008;2024-03-25T16:24:25;1.33;;;0.60;;
12306;SDS011;6216;51.146;7.008;2024-03-25T16:29:46;2.30;;;0.67;;
12306;SDS011;6216;51.146;7.008;2024-03-25T16:35:07;1.30;;;0.83;;
12306;SDS011;6216;51.146;7.008;2024-03-25T16:40:29;2.97;;;1.00;;
12306;SDS011;6216;51.146;7.008;2024-03-25T16:45:53;2.43;;;1.00;;
12306;SDS011;6216;51.146;7.008;2024-03-25T16:51:13;2.23;;;1.00;;
12306;SDS011;6216;51.146;7.008;2024-03-25T16:56:35;2.90;;;1.00;;
12306;SDS011;6216;51.146;7.008;2024-03-25T17:01:56;2.37;;;0.90;;
12306;SDS011;6216;51.146;7.008;2024-03-25T17:07:17;3.27;;;1.27;;
12306;SDS011;6216;51.146;7.008;2024-03-25T17:12:39;2.97;;;1.27;;
12306;SDS011;6216;51.146;7.008;2024-03-25T17:18:01;1.20;;;0.90;;
12306;SDS011;6216;51.146;7.008;2024-03-25T17:23:22;2.50;;;0.73;;
12306;SDS011;6216;51.146;7.008;2024-03-25T17:28:44;1.90;;;0.70;;
12306;SDS011;6216;51.146;7.008;2024-03-25T17:34:05;2.90;;;0.97;;
12306;SDS011;6216;51.146;7.008;2024-03-25T17:39:25;1.97;;;1.00;;
12306;SDS011;6216;51.146;7.008;2024-03-25T17:44:48;2.97;;;0.90;;
12306;SDS011;6216;51.146;7.008;2024-03-25T17:50:09;2.30;;;0.80;;
12306;SDS011;6216;51.146;7.008;2024-03-25T17:55:30;2.03;;;0.90;;
12306;SDS011;6216;51.146;7.008;2024-03-25T18:00:52;3.30;;;1.00;;
12306;SDS011;6216;51.146;7.008;2024-03-25T18:06:13;3.30;;;0.97;;
12306;SDS011;6216;51.146;7.008;2024-03-25T18:11:33;4.37;;;1.17;;
12306;SDS011;6216;51.146;7.008;2024-03-25T18:16:55;1.57;;;0.80;;
12306;SDS011;6216;51.146;7.008;2024-03-25T18:22:16;2.83;;;1.10;;
12306;SDS011;6216;51.146;7.008;2024-03-25T18:27:37;4.13;;;1.40;;
12306;SDS011;6216;51.146;7.008;2024-03-25T18:32:59;5.90;;;1.50;;
12306;SDS011;6216;51.146;7.008;2024-03-25T18:38:19;4.03;;;1.43;;
12306;SDS011;6216;51.146;7.008;2024-03-25T18:43:40;2.23;;;1.30;;
12306;SDS011;6216;51.146;7.008;2024-03-25T18:49:02;3.83;;;1.83;;
12306;SDS011;6216;51.146;7.008;2024-03-25T18:54:23;5.07;;;1.40;;
12306;SDS011;6216;51.146;7.008;2024-03-25T18:59:43;3.30;;;1.67;;
12306;SDS011;6216;51.146;7.008;2024-03-25T19:05:06;3.37;;;1.57;;
12306;SDS011;6216;51.146;7.008;2024-03-25T19:10:26;2.23;;;1.40;;
12306;SDS011;6216;51.146;7.008;2024-03-25T19:15:47;2.10;;;1.60;;
12306;SDS011;6216;51.146;7.008;2024-03-25T19:21:09;6.83;;;1.90;;
12306;SDS011;6216;51.146;7.008;2024-03-25T19:26:29;3.37;;;1.73;;
12306;SDS011;6216;51.146;7.008;2024-03-25T19:31:50;3.73;;;1.83;;
12306;SDS011;6216;51.146;7.008;2024-03-25T19:37:12;2.33;;;1.40;;
12306;SDS011;6216;51.146;7.008;2024-03-25T19:42:33;3.80;;;1.60;;
12306;SDS011;6216;51.146;7.008;2024-03-25T19:47:54;1.83;;;1.40;;
12306;SDS011;6216;51.146;7.008;2024-03-25T19:53:16;2.90;;;1.43;;
12306;SDS011;6216;51.146;7.008;2024-03-25T19:58:37;5.13;;;1.50;;
12306;SDS011;6216;51.146;7.008;2024-03-25T20:03:58;3.37;;;1.40;;
12306;SDS011;6216;51.146;7.008;2024-03-25T20:09:20;4.00;;;1.00;;
12306;SDS011;6216;51.146;7.008;2024-03-25T20:14:41;3.20;;;1.50;;
12306;SDS011;6216;51.146;7.008;2024-03-25T20:20:02;3.47;;;1.40;;
12306;SDS011;6216;51.146;7.008;2024-03-25T20:25:24;5.50;;;1.50;;
12306;SDS011;6216;51.146;7.008;2024-03-25T20:30:45;4.03;;;1.50;;
12306;SDS011;6216;51.146;7.008;2024-03-25T20:36:06;2.40;;;1.40;;
12306;SDS011;6216;51.146;7.008;2024-03-25T20:41:28;3.50;;;1.33;;
12306;SDS011;6216;51.146;7.008;2024-03-25T20:46:49;4.63;;;1.93;;
12306;SDS011;6216;51.146;7.008;2024-03-25T20:52:10;5.27;;;1.77;;
12306;SDS011;6216;51.146;7.008;2024-03-25T20:57:32;5.63;;;1.60;;
12306;SDS011;6216;51.146;7.008;2024-03-25T21:02:53;4.53;;;1.80;;
12306;SDS011;6216;51.146;7.008;2024-03-25T21:08:13;4.73;;;1.83;;
12306;SDS011;6216;51.146;7.008;2024-03-25T21:13:35;2.90;;;1.50;;
12306;SDS011;6216;51.146;7.008;2024-03-25T21:18:56;5.07;;;1.60;;
12306;SDS011;6216;51.146;7.008;2024-03-25T21:24:17;5.30;;;1.60;;
12306;SDS011;6216;51.146;7.008;2024-03-25T21:29:39;3.13;;;1.30;;
12306;SDS011;6216;51.146;7.008;2024-03-25T21:34:59;4.33;;;1.27;;
12306;SDS011;6216;51.146;7.008;2024-03-25T21:40:20;2.70;;;1.53;;
12306;SDS011;6216;51.146;7.008;2024-03-25T21:45:42;6.27;;;1.50;;
12306;SDS011;6216;51.146;7.008;2024-03-25T21:51:03;3.77;;;1.60;;
12306;SDS011;6216;51.146;7.008;2024-03-25T21:56:24;3.13;;;1.47;;
12306;SDS011;6216;51.146;7.008;2024-03-25T22:01:47;6.07;;;2.00;;
12306;SDS011;6216;51.146;7.008;2024-03-25T22:07:08;5.23;;;1.80;;
12306;SDS011;6216;51.146;7.008;2024-03-25T22:12:28;3.60;;;1.43;;
12306;SDS011;6216;51.146;7.008;2024-03-25T22:17:50;5.90;;;1.70;;
12306;SDS011;6216;51.146;7.008;2024-03-25T22:23:11;2.37;;;1.37;;
12306;SDS011;6216;51.146;7.008;2024-03-25T22:28:32;9.80;;;1.47;;
12306;SDS011;6216;51.146;7.008;2024-03-25T22:33:54;6.37;;;1.60;;
12306;SDS011;6216;51.146;7.008;2024-03-25T22:39:14;2.73;;;1.20;;
12306;SDS011;6216;51.146;7.008;2024-03-25T22:44:35;5.37;;;1.53;;
12306;SDS011;6216;51.146;7.008;2024-03-25T22:49:57;4.53;;;1.60;;
12306;SDS011;6216;51.146;7.008;2024-03-25T22:55:18;6.33;;;1.30;;
12306;SDS011;6216;51.146;7.008;2024-03-25T23:00:38;6.13;;;2.27;;
12306;SDS011;6216;51.146;7.008;2024-03-25T23:06:01;4.53;;;1.70;;
12306;SDS011;6216;51.146;7.008;2024-03-25T23:11:22;2.00;;;1.20;;
12306;SDS011;6216;51.146;7.008;2024-03-25T23:16:43;6.33;;;1.20;;
12306;SDS011;6216;51.146;7.008;2024-03-25T23:22:05;2.10;;;1.20;;
12306;SDS011;6216;51.146;7.008;2024-03-25T23:27:25;3.60;;;1.30;;
12306;SDS011;6216;51.146;7.008;2024-03-25T23:32:46;4.03;;;1.43;;
12306;SDS011;6216;51.146;7.008;2024-03-25T23:38:08;4.50;;;1.60;;
12306;SDS011;6216;51.146;7.008;2024-03-25T23:43:29;3.40;;;1.27;;
12306;SDS011;6216;51.146;7.008;2024-03-25T23:48:50;2.90;;;1.03;;
12306;SDS011;6216;51.146;7.008;2024-03-25T23:54:12;3.70;;;1.63;;
12306;SDS011;6216;51.146;7.008;2024-03-25T23:59:33;5.70;;;1.63;;
